createdAt,value
2023-05-09T00:04:49.269Z,21.00
2023-05-09T00:09:41.990Z,19.57
2023-05-09T00:14:34.741Z,16.90
2023-05-09T00:19:27.470Z,16.40
2023-05-09T00:24:21.482Z,16.47
2023-05-09T00:29:14.122Z,12.73
2023-05-09T00:34:06.819Z,14.60
2023-05-09T00:38:59.436Z,13.83
2023-05-09T00:43:53.463Z,13.40
2023-05-09T00:48:46.593Z,13.80
2023-05-09T00:53:39.329Z,12.43
2023-05-09T00:58:32.211Z,13.33
2023-05-09T01:03:26.485Z,13.77
2023-05-09T01:08:24.144Z,17.83
2023-05-09T01:13:20.145Z,17.30
2023-05-09T01:18:15.505Z,21.93
2023-05-09T01:23:19.864Z,21.67
2023-05-09T01:28:15.024Z,18.13
2023-05-09T01:33:09.068Z,15.77
2023-05-09T01:38:03.355Z,12.70
2023-05-09T01:42:58.059Z,14.40
2023-05-09T01:47:51.359Z,17.40
2023-05-09T01:52:47.970Z,19.57
2023-05-09T01:57:41.389Z,26.03
2023-05-09T02:02:34.317Z,20.60
2023-05-09T02:07:27.748Z,17.40
2023-05-09T02:12:22.950Z,11.20
2023-05-09T02:17:17.091Z,10.73
2023-05-09T02:22:09.846Z,12.17
2023-05-09T02:27:03.693Z,12.77
2023-05-09T02:31:58.755Z,13.40
2023-05-09T02:36:52.128Z,14.03
2023-05-09T02:41:49.120Z,13.60
2023-05-09T02:46:41.777Z,15.40
2023-05-09T02:51:36.382Z,17.43
2023-05-09T02:56:29.198Z,20.70
2023-05-09T03:01:22.050Z,21.20
2023-05-09T03:06:14.710Z,23.10
2023-05-09T03:11:08.834Z,21.70
2023-05-09T03:16:02.572Z,22.97
2023-05-09T03:20:55.283Z,22.53
2023-05-09T03:25:48.088Z,22.30
2023-05-09T03:30:43.526Z,17.30
2023-05-09T03:35:40.314Z,14.90
2023-05-09T03:40:33.622Z,13.60
2023-05-09T03:45:32.869Z,14.23
2023-05-09T03:50:27.239Z,13.10
2023-05-09T03:55:23.730Z,12.97
2023-05-09T04:00:16.756Z,13.10
2023-05-09T04:05:19.323Z,14.00
2023-05-09T04:10:14.618Z,13.63
2023-05-09T04:15:08.318Z,14.63
2023-05-09T04:20:02.107Z,16.00
2023-05-09T04:24:55.327Z,17.43
2023-05-09T04:29:49.776Z,17.93
2023-05-09T04:34:42.861Z,15.17
2023-05-09T04:39:43.131Z,14.63
2023-05-09T04:44:43.227Z,13.87
2023-05-09T04:49:37.298Z,12.00
2023-05-09T04:54:30.060Z,11.93
2023-05-09T04:59:23.200Z,11.33
2023-05-09T05:04:15.989Z,10.77
2023-05-09T05:09:10.588Z,10.20
2023-05-09T05:14:03.405Z,10.70
2023-05-09T05:18:56.795Z,10.90
2023-05-09T05:23:50.194Z,10.13
2023-05-09T05:28:44.404Z,10.40
2023-05-09T05:33:37.361Z,11.13
2023-05-09T05:38:31.098Z,10.97
2023-05-09T05:43:25.207Z,10.60
2023-05-09T05:48:19.373Z,12.27
2023-05-09T05:53:13.660Z,12.33
2023-05-09T05:58:06.995Z,15.63
2023-05-09T06:03:00.885Z,14.20
2023-05-09T06:08:09.250Z,15.77
2023-05-09T06:13:02.367Z,18.20
2023-05-09T06:17:55.358Z,18.03
2023-05-09T06:22:48.083Z,18.00
2023-05-09T06:27:42.867Z,16.40
2023-05-09T06:32:35.673Z,13.20
2023-05-09T06:37:28.366Z,12.77
2023-05-09T06:42:21.018Z,11.83
2023-05-09T06:47:16.426Z,12.23
2023-05-09T06:52:09.427Z,11.13
2023-05-09T06:57:02.119Z,11.70
2023-05-09T07:01:54.766Z,11.37
2023-05-09T07:06:48.854Z,10.77
2023-05-09T07:11:41.483Z,10.30
2023-05-09T07:16:36.694Z,9.30
2023-05-09T07:21:30.336Z,9.37
2023-05-09T07:26:24.317Z,9.70
2023-05-09T07:31:16.921Z,9.70
2023-05-09T07:36:13.141Z,10.30
2023-05-09T07:41:07.020Z,10.87
2023-05-09T07:46:01.024Z,9.80
2023-05-09T07:50:53.749Z,8.83
2023-05-09T07:55:48.321Z,8.70
2023-05-09T08:00:41.613Z,10.60
2023-05-09T08:05:35.697Z,9.80
2023-05-09T08:10:30.650Z,9.60
2023-05-09T08:15:23.481Z,9.50
2023-05-09T08:20:16.225Z,7.40
2023-05-09T08:25:10.627Z,7.40
2023-05-09T08:30:03.247Z,8.40
2023-05-09T08:34:55.868Z,6.97
2023-05-09T08:39:48.537Z,7.70
2023-05-09T08:44:42.512Z,6.07
2023-05-09T08:49:36.229Z,6.23
2023-05-09T08:54:30.032Z,5.83
2023-05-09T08:59:23.109Z,6.70
2023-05-09T09:04:17.344Z,7.30
2023-05-09T09:09:10.425Z,7.40
2023-05-09T09:14:06.975Z,6.50
2023-05-09T09:18:59.770Z,5.50
2023-05-09T09:23:55.499Z,6.83
2023-05-09T09:28:48.179Z,7.27
2023-05-09T09:33:40.862Z,6.97
2023-05-09T09:38:40.502Z,6.97
2023-05-09T09:43:34.443Z,6.80
2023-05-09T09:48:27.371Z,7.87
2023-05-09T09:53:21.324Z,8.10
2023-05-09T09:58:17.513Z,8.00
2023-05-09T10:03:15.133Z,7.10
2023-05-09T10:08:09.505Z,7.23
2023-05-09T10:13:03.562Z,7.50
2023-05-09T10:17:58.067Z,6.60
2023-05-09T10:22:54.960Z,6.83
2023-05-09T10:27:48.363Z,7.20
2023-05-09T10:32:44.336Z,6.67
2023-05-09T10:37:37.705Z,6.40
2023-05-09T10:42:31.912Z,6.83
2023-05-09T10:47:24.906Z,7.10
2023-05-09T10:52:18.899Z,8.00
2023-05-09T10:57:11.970Z,7.20
2023-05-09T11:02:06.951Z,8.37
2023-05-09T11:07:00.308Z,9.00
2023-05-09T11:11:53.479Z,8.67
2023-05-09T11:16:57.965Z,8.23
2023-05-09T11:22:02.955Z,7.20
2023-05-09T11:26:56.271Z,7.90
2023-05-09T11:32:03.857Z,7.13
2023-05-09T11:37:07.686Z,6.60
2023-05-09T11:42:02.061Z,7.00
2023-05-09T11:46:54.717Z,6.17
2023-05-09T11:51:47.358Z,5.87
2023-05-09T11:56:41.561Z,6.70
2023-05-09T12:01:36.811Z,5.30
2023-05-09T12:06:30.057Z,5.20
2023-05-09T12:11:23.880Z,5.30
2023-05-09T12:16:17.116Z,5.90
2023-05-09T12:21:12.185Z,5.33
2023-05-09T12:26:05.922Z,5.80
2023-05-09T12:30:58.747Z,5.70
2023-05-09T12:36:03.975Z,5.83
2023-05-09T12:41:03.760Z,6.70
2023-05-09T12:45:56.762Z,7.47
2023-05-09T12:50:49.415Z,7.33
2023-05-09T12:55:42.374Z,6.37
2023-05-09T13:00:43.997Z,6.23
2023-05-09T13:05:36.732Z,5.83
2023-05-09T13:10:29.732Z,5.87
2023-05-09T13:15:22.994Z,5.57
2023-05-09T13:20:17.936Z,5.60
2023-05-09T13:25:11.413Z,5.70
2023-05-09T13:30:04.260Z,6.10
2023-05-09T13:34:56.876Z,5.77
2023-05-09T13:39:50.949Z,5.80
2023-05-09T13:44:43.490Z,5.63
2023-05-09T13:49:36.761Z,5.07
2023-05-09T13:54:34.898Z,5.30
2023-05-09T13:59:28.948Z,4.70
2023-05-09T14:04:21.509Z,5.80
2023-05-09T14:09:15.251Z,5.20
2023-05-09T14:14:08.289Z,5.63
2023-05-09T14:19:02.191Z,5.77
2023-05-09T14:23:55.036Z,6.30
2023-05-09T14:28:47.621Z,6.57
2023-05-09T14:33:40.304Z,5.57
2023-05-09T14:38:34.354Z,5.27
2023-05-09T14:43:26.953Z,5.17
2023-05-09T14:48:19.624Z,5.50
2023-05-09T14:53:12.647Z,4.63
2023-05-09T14:58:06.602Z,4.57
2023-05-09T15:02:59.243Z,4.90
2023-05-09T15:07:51.867Z,4.90
2023-05-09T15:12:44.705Z,4.70
2023-05-09T15:17:38.803Z,4.87
2023-05-09T15:22:33.721Z,5.10
2023-05-09T15:27:26.328Z,5.53
2023-05-09T15:32:19.095Z,6.00
2023-05-09T15:37:13.265Z,5.93
2023-05-09T15:42:08.593Z,6.50
2023-05-09T15:47:01.303Z,7.33
2023-05-09T15:51:53.925Z,7.67
2023-05-09T15:56:48.340Z,9.47
2023-05-09T16:01:40.966Z,9.70
2023-05-09T16:06:34.099Z,7.60
2023-05-09T16:11:26.755Z,6.23
2023-05-09T16:16:20.846Z,12.17
2023-05-09T16:21:13.540Z,6.80
2023-05-09T16:26:06.242Z,5.03
2023-05-09T16:31:00.145Z,6.20
2023-05-09T16:35:54.171Z,5.00
2023-05-09T16:40:46.853Z,5.60
2023-05-09T16:45:39.511Z,4.90
2023-05-09T16:50:32.495Z,5.20
2023-05-09T16:55:26.711Z,5.70
2023-05-09T17:00:19.886Z,6.17
2023-05-09T17:05:12.428Z,6.73
2023-05-09T17:10:05.222Z,6.83
2023-05-09T17:14:59.183Z,6.77
2023-05-09T17:19:52.354Z,7.13
2023-05-09T17:24:45.011Z,6.20
2023-05-09T17:29:37.720Z,7.43
2023-05-09T17:34:32.316Z,7.50
2023-05-09T17:39:25.069Z,7.20
2023-05-09T17:44:17.763Z,7.43
2023-05-09T17:49:11.284Z,7.73
2023-05-09T17:54:05.639Z,8.17
2023-05-09T17:58:59.818Z,8.90
2023-05-09T18:03:52.833Z,9.73
2023-05-09T18:08:45.616Z,9.27
2023-05-09T18:13:39.557Z,11.57
2023-05-09T18:18:32.456Z,12.33
2023-05-09T18:23:25.589Z,11.47
2023-05-09T18:28:24.385Z,13.43
2023-05-09T18:33:18.529Z,9.00
2023-05-09T18:38:11.485Z,8.20
2023-05-09T18:43:04.224Z,7.90
2023-05-09T18:47:56.968Z,7.60
2023-05-09T18:52:51.209Z,8.37
2023-05-09T18:57:43.956Z,8.50
2023-05-09T19:02:36.625Z,7.73
2023-05-09T19:07:29.470Z,8.30
2023-05-09T19:12:23.595Z,8.67
2023-05-09T19:17:16.422Z,7.93
2023-05-09T19:22:09.135Z,7.80
2023-05-09T19:27:02.097Z,7.50
2023-05-09T19:31:56.441Z,7.93
2023-05-09T19:36:49.280Z,8.10
2023-05-09T19:41:42.024Z,8.77
2023-05-09T19:46:35.354Z,8.80
2023-05-09T19:51:29.596Z,8.63
2023-05-09T19:56:23.265Z,7.37
2023-05-09T20:01:16.115Z,8.20
2023-05-09T20:06:09.158Z,7.13
2023-05-09T20:11:03.294Z,6.40
2023-05-09T20:15:57.109Z,6.20
2023-05-09T20:20:49.967Z,4.30
2023-05-09T20:25:42.908Z,5.00
2023-05-09T20:30:37.248Z,4.80
2023-05-09T20:35:30.754Z,5.17
2023-05-09T20:40:23.530Z,4.93
2023-05-09T20:45:16.649Z,5.57
2023-05-09T20:50:11.786Z,5.60
2023-05-09T20:55:05.388Z,6.00
2023-05-09T20:59:57.998Z,6.87
2023-05-09T21:04:50.714Z,7.23
2023-05-09T21:09:44.781Z,8.20
2023-05-09T21:14:37.395Z,8.70
2023-05-09T21:19:30.164Z,9.90
2023-05-09T21:24:22.817Z,10.17
2023-05-09T21:29:16.865Z,9.77
2023-05-09T21:34:10.674Z,10.07
2023-05-09T21:39:08.053Z,9.60
2023-05-09T21:44:00.751Z,10.67
2023-05-09T21:48:54.911Z,9.53
2023-05-09T21:53:47.593Z,9.80
2023-05-09T21:58:40.425Z,9.67
2023-05-09T22:03:33.221Z,10.17
2023-05-09T22:08:27.293Z,9.30
2023-05-09T22:13:19.952Z,7.50
2023-05-09T22:18:12.592Z,6.60
2023-05-09T22:23:05.457Z,6.00
2023-05-09T22:27:59.577Z,5.63
2023-05-09T22:32:52.292Z,5.50
2023-05-09T22:37:45.071Z,4.13
2023-05-09T22:42:39.613Z,4.77
2023-05-09T22:47:33.757Z,3.60
2023-05-09T22:52:26.507Z,2.37
2023-05-09T22:57:20.568Z,2.00
2023-05-09T23:02:13.466Z,1.80
2023-05-09T23:07:07.790Z,1.90
2023-05-09T23:12:01.250Z,1.83
2023-05-09T23:16:54.214Z,2.17
2023-05-09T23:21:46.859Z,2.10
2023-05-09T23:26:40.838Z,2.40
2023-05-09T23:31:33.485Z,2.30
2023-05-09T23:36:26.235Z,2.40
2023-05-09T23:41:20.046Z,2.33
2023-05-09T23:46:14.068Z,2.40
2023-05-09T23:51:06.922Z,2.60
2023-05-09T23:55:59.574Z,3.30
